地図

経路データ

SID SEASON NUMBER BASIN SUBBASIN NAME ISO_TIME NATURE LAT LON WMO_WIND WMO_PRES WMO_AGENCY TRACK_TYPE DIST2LAND LANDFALL IFLAG USA_AGENCY USA_ATCF_ID USA_LAT USA_LON USA_RECORD USA_STATUS USA_WIND USA_PRES USA_SSHS USA_R34_NE USA_R34_SE USA_R34_SW USA_R34_NW USA_R50_NE USA_R50_SE USA_R50_SW USA_R50_NW USA_R64_NE USA_R64_SE USA_R64_SW USA_R64_NW USA_POCI USA_ROCI USA_RMW USA_EYE TOKYO_LAT TOKYO_LON TOKYO_GRADE TOKYO_WIND TOKYO_PRES TOKYO_R50_DIR TOKYO_R50_LONG TOKYO_R50_SHORT TOKYO_R30_DIR TOKYO_R30_LONG TOKYO_R30_SHORT TOKYO_LAND CMA_LAT CMA_LON CMA_CAT CMA_WIND CMA_PRES HKO_LAT HKO_LON HKO_CAT HKO_WIND HKO_PRES NEWDELHI_LAT NEWDELHI_LON NEWDELHI_GRADE NEWDELHI_WIND NEWDELHI_PRES NEWDELHI_CI NEWDELHI_DP NEWDELHI_POCI REUNION_LAT REUNION_LON REUNION_TYPE REUNION_WIND REUNION_PRES REUNION_TNUM REUNION_CI REUNION_RMW REUNION_R34_NE REUNION_R34_SE REUNION_R34_SW REUNION_R34_NW REUNION_R50_NE REUNION_R50_SE REUNION_R50_SW REUNION_R50_NW REUNION_R64_NE REUNION_R64_SE REUNION_R64_SW REUNION_R64_NW BOM_LAT BOM_LON BOM_TYPE BOM_WIND BOM_PRES BOM_TNUM BOM_CI BOM_RMW BOM_R34_NE BOM_R34_SE BOM_R34_SW BOM_R34_NW BOM_R50_NE BOM_R50_SE BOM_R50_SW BOM_R50_NW BOM_R64_NE BOM_R64_SE BOM_R64_SW BOM_R64_NW BOM_ROCI BOM_POCI BOM_EYE BOM_POS_METHOD BOM_PRES_METHOD NADI_LAT NADI_LON NADI_CAT NADI_WIND NADI_PRES WELLINGTON_LAT WELLINGTON_LON WELLINGTON_WIND WELLINGTON_PRES DS824_LAT DS824_LON DS824_STAGE DS824_WIND DS824_PRES TD9636_LAT TD9636_LON TD9636_STAGE TD9636_WIND TD9636_PRES TD9635_LAT TD9635_LON TD9635_WIND TD9635_PRES TD9635_ROCI NEUMANN_LAT NEUMANN_LON NEUMANN_CLASS NEUMANN_WIND NEUMANN_PRES MLC_LAT MLC_LON MLC_CLASS MLC_WIND MLC_PRES USA_GUST BOM_GUST BOM_GUST_PER REUNION_GUST REUNION_GUST_PER USA_SEAHGT USA_SEARAD_NE USA_SEARAD_SE USA_SEARAD_SW USA_SEARAD_NW STORM_SPEED STORM_DIR
1964109S20161 1964 27 SP MM NOT_NAMED 1964-04-18 00:00:00 TS -20.3000 160.900 main 323 296 O________OO_O_ jtwc_sh SH321964 -20.3000 160.900 -1 -20.3000 160.900 TC 25 -20.3000 160.900 1 -20.3000 160.900 TC 20 14 154
1964109S20161 1964 27 SP MM NOT_NAMED 1964-04-18 03:00:00 TS -20.9482 161.236 main 299 282 P________PP_P_ SH321964 -20.9826 161.224 -1 -20.9826 161.224 TC 25 -20.9176 161.267 1 -20.9101 161.227 TC 22 14 152
1964109S20161 1964 27 SP MM NOT_NAMED 1964-04-18 06:00:00 TS -21.5520 161.615 main 288 276 O________OP_O_ jtwc_sh SH321964 -21.6000 161.600 -1 -21.6000 161.600 TC 25 -21.5080 161.658 1 -21.5000 161.600 TC 25 14 145
1964109S20161 1964 27 SP MM NOT_NAMED 1964-04-18 09:00:00 TS -22.0735 162.069 main 278 265 P________PP_P_ SH321964 -22.1024 162.063 -1 -22.1024 162.063 TC 25 -22.0444 162.095 1 -22.0448 162.055 TC 27 13 136
1964109S20161 1964 27 SP MM NOT_NAMED 1964-04-18 12:00:00 TS -22.5000 162.600 main 265 242 O________OO_O_ jtwc_sh SH321964 -22.5000 162.600 -1 -22.5000 162.600 TC 25 -22.5000 162.600 1 -22.5000 162.600 TC 30 13 127
1964109S20161 1964 27 SP MM NOT_NAMED 1964-04-18 15:00:00 TS -22.8542 163.178 main 242 221 P________PP_P_ SH321964 -22.8520 163.155 -1 -22.8520 163.155 TC 25 -22.8528 163.188 1 -22.8598 163.213 TC 30 13 118
1964109S20161 1964 27 SP MM NOT_NAMED 1964-04-18 18:00:00 TS -23.1003 163.839 main 221 196 O________OP_O_ jtwc_sh SH321964 -23.1000 163.800 -1 -23.1000 163.800 TC 25 -23.1012 163.857 1 -23.1000 163.900 TC 30 14 107
1964109S20161 1964 27 SP MM NOT_NAMED 1964-04-18 21:00:00 TS -23.2514 164.580 main 199 151 P________PP_P_ SH321964 -23.2523 164.555 -1 -23.2523 164.555 TC 25 -23.2491 164.597 1 -23.2520 164.613 TC 30 14 98
1964109S20161 1964 27 SP MM NOT_NAMED 1964-04-19 00:00:00 TS -23.3000 165.400 main 151 112 O________OO_O_ jtwc_sh SH321964 -23.3000 165.400 -1 -23.3000 165.400 TC 25 -23.3000 165.400 1 -23.3000 165.400 TC 30 16 92
1964109S20161 1964 27 SP MM NOT_NAMED 1964-04-19 03:00:00 TS -23.2983 166.273 main 108 89 P________PP_P_ SH321964 -23.2947 166.285 -1 -23.2947 166.285 TC 25 -23.3089 166.243 1 -23.2948 166.277 TC 30 16 87
1964109S20161 1964 27 SP MM NOT_NAMED 1964-04-19 06:00:00 TS -23.2056 167.185 main 94 94 O________OP_O_ jtwc_sh SH321964 -23.2000 167.200 -1 -23.2000 167.200 TC 25 -23.2222 167.140 1 -23.2000 167.200 TC 30 17 82
1964109S20161 1964 27 SP MM NOT_NAMED 1964-04-19 09:00:00 TS -23.0494 168.092 main 137 137 P________PP_P_ SH321964 -23.0520 168.100 -1 -23.0520 168.100 TC 25 -23.0493 168.067 1 -23.0445 168.100 TC 30 17 76
1964109S20161 1964 27 SP MM NOT_NAMED 1964-04-19 12:00:00 TS -22.8000 169.000 main 212 212 O________OO_O_ jtwc_sh SH321964 -22.8000 169.000 -1 -22.8000 169.000 TC 25 -22.8000 169.000 1 -22.8000 169.000 TC 30 18 70
1964109S20161 1964 27 SP MM NOT_NAMED 1964-04-19 15:00:00 TS -22.4371 169.892 main 298 298 P________PP_P_ SH321964 -22.4220 169.900 -1 -22.4220 169.900 TC 25 -22.4249 169.867 1 -22.4795 169.900 TC 30 18 65
1964109S20161 1964 27 SP MM NOT_NAMED 1964-04-19 18:00:00 TS -22.0233 170.785 main 391 391 O________OP_O_ jtwc_sh SH321964 -22.0000 170.800 -1 -22.0000 170.800 TC 25 -21.9932 170.738 1 -22.1000 170.800 TC 30 18 63
1964109S20161 1964 27 SP MM NOT_NAMED 1964-04-19 21:00:00 TS -21.6093 171.666 main 489 489 P________PP_P_ SH321964 -21.5966 171.678 -1 -21.5966 171.678 TC 25 -21.5901 171.640 1 -21.6540 171.671 TC 30 18 67
1964109S20161 1964 27 SP MM NOT_NAMED 1964-04-20 00:00:00 TS -21.3000 172.600 main 586 519 O________OO_O_ jtwc_sh SH321964 -21.3000 172.600 -1 -21.3000 172.600 TC 25 -21.3000 172.600 1 -21.3000 172.600 TC 30 19 77
1964109S20161 1964 27 SP MM NOT_NAMED 1964-04-20 03:00:00 TS -21.1750 173.628 main 519 440 P________PP_P_ SH321964 -21.1743 173.605 -1 -21.1743 173.605 TC 25 -21.1842 173.641 1 -21.1672 173.662 TC 27 20 87
1964109S20161 1964 27 SP MM NOT_NAMED 1964-04-20 06:00:00 TS -21.2033 174.738 main 440 390 O________OP_O_ jtwc_sh SH321964 -21.2000 174.700 -1 -21.2000 174.700 TC 25 -21.2133 174.753 1 -21.2000 174.800 TC 25 21 94
1964109S20161 1964 27 SP MM NOT_NAMED 1964-04-20 09:00:00 TS -21.3296 175.904 main 386 368 P________PP_P_ SH321964 -21.3269 175.877 -1 -21.3269 175.877 TC 25 -21.3356 175.913 1 -21.3289 175.949 TC 22 22 98
1964109S20161 1964 27 SP MM NOT_NAMED 1964-04-20 12:00:00 TS -21.5000 177.100 main 367 O________OO_O_ jtwc_sh SH321964 -21.5000 177.100 -1 -21.5000 177.100 TC 25 -21.5000 177.100 1 -21.5000 177.100 TC 20 23 99

デジタル台風データ・検索

IBTrACS Databaseについて

本データベースは、米国NOAAが公開する1842年以降の世界の熱帯低気圧のベストトラックデータアーカイブInternational Best Track Archive for Climate Stewardship (IBTrACS)を、ウェブで閲覧しやすい形式に変換したものです。

最終更新日:2021-10-08